Terminal Aerodrome Forecast
Issued by NWS Wilmington, OH

Home | Current Version | Previous Version | Text Only | Print | Product List | Glossary On
Versions: 1 2 3 4 5 6 7 8 9 10 11 12 13 14 15 16 17 18 19 20 21
000
FTUS41 KILN 221100
TAFILN
TAF
KILN 221120Z 2212/2312 22009KT P6SM SKC
     FM221400 25011G16KT P6SM FEW045
     FM222000 31012G18KT P6SM BKN050
     FM222200 34008KT P6SM BKN045
     FM230100 05004KT P6SM SCT200=

USA.gov is the U.S. government's official web portal to all federal, state and local government web resources and services.